sensor_id;sensor_type;location;lat;lon;timestamp;P1;durP1;ratioP1;P2;durP2;ratioP2
45039;SDS011;30778;53.574;7.770;2022-12-29T00:02:16;2.70;;;2.13;;
45039;SDS011;30778;53.574;7.770;2022-12-29T00:04:41;3.60;;;2.55;;
45039;SDS011;30778;53.574;7.770;2022-12-29T00:07:07;2.50;;;2.30;;
45039;SDS011;30778;53.574;7.770;2022-12-29T00:09:34;2.30;;;1.98;;
45039;SDS011;30778;53.574;7.770;2022-12-29T00:12:00;2.72;;;1.80;;
45039;SDS011;30778;53.574;7.770;2022-12-29T00:14:26;2.83;;;2.03;;
45039;SDS011;30778;53.574;7.770;2022-12-29T00:17:11;2.53;;;2.08;;
45039;SDS011;30778;53.574;7.770;2022-12-29T00:19:36;4.82;;;1.80;;
45039;SDS011;30778;53.574;7.770;2022-12-29T00:22:20;2.05;;;1.60;;
45039;SDS011;30778;53.574;7.770;2022-12-29T00:25:04;3.30;;;2.40;;
45039;SDS011;30778;53.574;7.770;2022-12-29T00:27:51;3.00;;;1.42;;
45039;SDS011;30778;53.574;7.770;2022-12-29T00:30:35;3.17;;;1.75;;
45039;SDS011;30778;53.574;7.770;2022-12-29T00:33:20;3.50;;;1.67;;
45039;SDS011;30778;53.574;7.770;2022-12-29T00:38:37;3.17;;;1.43;;
45039;SDS011;30778;53.574;7.770;2022-12-29T00:41:24;2.22;;;1.85;;
45039;SDS011;30778;53.574;7.770;2022-12-29T00:44:10;1.90;;;1.33;;
45039;SDS011;30778;53.574;7.770;2022-12-29T00:46:38;2.85;;;1.52;;
45039;SDS011;30778;53.574;7.770;2022-12-29T00:49:06;2.33;;;1.50;;
45039;SDS011;30778;53.574;7.770;2022-12-29T00:51:51;1.85;;;1.20;;
45039;SDS011;30778;53.574;7.770;2022-12-29T00:54:17;3.83;;;1.83;;
45039;SDS011;30778;53.574;7.770;2022-12-29T00:56:43;1.67;;;1.27;;
45039;SDS011;30778;53.574;7.770;2022-12-29T00:59:10;3.40;;;1.75;;
45039;SDS011;30778;53.574;7.770;2022-12-29T01:01:36;4.15;;;1.63;;
45039;SDS011;30778;53.574;7.770;2022-12-29T01:04:03;2.00;;;1.75;;
45039;SDS011;30778;53.574;7.770;2022-12-29T01:06:29;2.85;;;1.65;;
45039;SDS011;30778;53.574;7.770;2022-12-29T01:08:55;3.47;;;1.42;;
45039;SDS011;30778;53.574;7.770;2022-12-29T01:11:40;2.38;;;1.75;;
45039;SDS011;30778;53.574;7.770;2022-12-29T01:14:06;2.85;;;2.05;;
45039;SDS011;30778;53.574;7.770;2022-12-29T01:16:32;2.53;;;1.52;;
45039;SDS011;30778;53.574;7.770;2022-12-29T01:18:58;2.25;;;1.50;;
45039;SDS011;30778;53.574;7.770;2022-12-29T01:21:23;2.20;;;1.60;;
45039;SDS011;30778;53.574;7.770;2022-12-29T01:23:50;3.20;;;1.80;;
45039;SDS011;30778;53.574;7.770;2022-12-29T01:26:16;2.88;;;2.47;;
45039;SDS011;30778;53.574;7.770;2022-12-29T01:28:42;1.73;;;1.48;;
45039;SDS011;30778;53.574;7.770;2022-12-29T01:31:09;3.17;;;2.20;;
45039;SDS011;30778;53.574;7.770;2022-12-29T01:33:35;2.70;;;1.80;;
45039;SDS011;30778;53.574;7.770;2022-12-29T01:36:02;2.25;;;1.70;;
45039;SDS011;30778;53.574;7.770;2022-12-29T01:38:29;5.07;;;1.65;;
45039;SDS011;30778;53.574;7.770;2022-12-29T01:40:55;3.15;;;1.95;;
45039;SDS011;30778;53.574;7.770;2022-12-29T01:43:21;2.25;;;1.60;;
45039;SDS011;30778;53.574;7.770;2022-12-29T01:45:50;3.13;;;2.17;;
45039;SDS011;30778;53.574;7.770;2022-12-29T01:48:18;2.80;;;1.65;;
45039;SDS011;30778;53.574;7.770;2022-12-29T01:50:54;2.17;;;1.63;;
45039;SDS011;30778;53.574;7.770;2022-12-29T01:53:20;2.60;;;1.77;;
45039;SDS011;30778;53.574;7.770;2022-12-29T01:55:56;2.45;;;1.63;;
45039;SDS011;30778;53.574;7.770;2022-12-29T01:58:28;2.17;;;1.85;;
45039;SDS011;30778;53.574;7.770;2022-12-29T02:00:56;1.98;;;1.33;;
45039;SDS011;30778;53.574;7.770;2022-12-29T02:03:22;3.25;;;1.55;;
45039;SDS011;30778;53.574;7.770;2022-12-29T02:05:53;1.73;;;1.45;;
45039;SDS011;30778;53.574;7.770;2022-12-29T02:08:28;1.88;;;1.42;;
45039;SDS011;30778;53.574;7.770;2022-12-29T02:10:58;2.83;;;1.48;;
45039;SDS011;30778;53.574;7.770;2022-12-29T02:13:25;8.90;;;2.42;;
45039;SDS011;30778;53.574;7.770;2022-12-29T02:18:25;3.25;;;1.23;;
45039;SDS011;30778;53.574;7.770;2022-12-29T02:23:57;2.28;;;1.10;;
45039;SDS011;30778;53.574;7.770;2022-12-29T02:34:48;4.25;;;1.10;;
45039;SDS011;30778;53.574;7.770;2022-12-29T02:51:57;2.20;;;1.30;;
45039;SDS011;30778;53.574;7.770;2022-12-29T02:54:28;1.63;;;0.88;;
45039;SDS011;30778;53.574;7.770;2022-12-29T02:58:02;1.63;;;1.08;;
45039;SDS011;30778;53.574;7.770;2022-12-29T03:00:01;2.28;;;1.58;;
45039;SDS011;30778;53.574;7.770;2022-12-29T03:10:49;1.98;;;1.20;;
45039;SDS011;30778;53.574;7.770;2022-12-29T03:16:18;2.40;;;1.40;;
45039;SDS011;30778;53.574;7.770;2022-12-29T03:19:02;4.30;;;1.15;;
45039;SDS011;30778;53.574;7.770;2022-12-29T03:21:37;2.35;;;0.77;;
45039;SDS011;30778;53.574;7.770;2022-12-29T03:24:31;1.65;;;0.77;;
45039;SDS011;30778;53.574;7.770;2022-12-29T03:27:04;3.35;;;1.08;;
45039;SDS011;30778;53.574;7.770;2022-12-29T03:29:41;1.60;;;0.75;;
45039;SDS011;30778;53.574;7.770;2022-12-29T03:32:13;1.77;;;0.73;;
45039;SDS011;30778;53.574;7.770;2022-12-29T03:34:40;1.27;;;0.75;;
45039;SDS011;30778;53.574;7.770;2022-12-29T03:37:08;2.03;;;0.98;;
45039;SDS011;30778;53.574;7.770;2022-12-29T03:39:37;1.83;;;0.63;;
45039;SDS011;30778;53.574;7.770;2022-12-29T03:42:09;3.72;;;0.77;;
45039;SDS011;30778;53.574;7.770;2022-12-29T03:44:40;3.10;;;0.93;;
45039;SDS011;30778;53.574;7.770;2022-12-29T03:47:09;1.48;;;0.60;;
45039;SDS011;30778;53.574;7.770;2022-12-29T03:49:36;1.45;;;0.98;;
45039;SDS011;30778;53.574;7.770;2022-12-29T03:52:04;1.40;;;0.38;;
45039;SDS011;30778;53.574;7.770;2022-12-29T03:54:34;1.10;;;0.40;;
45039;SDS011;30778;53.574;7.770;2022-12-29T03:57:00;1.23;;;0.60;;
45039;SDS011;30778;53.574;7.770;2022-12-29T03:59:40;5.88;;;0.95;;
45039;SDS011;30778;53.574;7.770;2022-12-29T04:02:06;0.90;;;0.32;;
45039;SDS011;30778;53.574;7.770;2022-12-29T04:04:33;1.15;;;0.50;;
45039;SDS011;30778;53.574;7.770;2022-12-29T04:06:58;0.90;;;0.38;;
45039;SDS011;30778;53.574;7.770;2022-12-29T04:09:24;1.73;;;0.40;;
45039;SDS011;30778;53.574;7.770;2022-12-29T04:11:51;0.63;;;0.25;;
45039;SDS011;30778;53.574;7.770;2022-12-29T04:14:18;1.25;;;0.20;;
45039;SDS011;30778;53.574;7.770;2022-12-29T04:16:44;4.25;;;0.40;;
45039;SDS011;30778;53.574;7.770;2022-12-29T04:19:10;3.53;;;0.70;;
45039;SDS011;30778;53.574;7.770;2022-12-29T04:21:36;2.78;;;0.63;;
45039;SDS011;30778;53.574;7.770;2022-12-29T04:24:03;3.45;;;0.20;;
45039;SDS011;30778;53.574;7.770;2022-12-29T04:26:32;1.65;;;0.40;;
45039;SDS011;30778;53.574;7.770;2022-12-29T04:29:06;0.95;;;0.25;;
45039;SDS011;30778;53.574;7.770;2022-12-29T04:31:39;0.77;;;0.28;;
45039;SDS011;30778;53.574;7.770;2022-12-29T04:34:05;1.20;;;0.38;;
45039;SDS011;30778;53.574;7.770;2022-12-29T04:36:31;2.22;;;0.30;;
45039;SDS011;30778;53.574;7.770;2022-12-29T04:38:58;4.10;;;0.20;;
45039;SDS011;30778;53.574;7.770;2022-12-29T04:41:24;0.70;;;0.28;;
45039;SDS011;30778;53.574;7.770;2022-12-29T04:43:49;1.52;;;0.50;;
45039;SDS011;30778;53.574;7.770;2022-12-29T04:46:47;0.90;;;0.20;;
45039;SDS011;30778;53.574;7.770;2022-12-29T04:49:33;0.88;;;0.20;;
45039;SDS011;30778;53.574;7.770;2022-12-29T04:52:14;0.55;;;0.35;;
45039;SDS011;30778;53.574;7.770;2022-12-29T04:54:40;1.00;;;0.40;;
45039;SDS011;30778;53.574;7.770;2022-12-29T04:57:12;0.60;;;0.20;;
45039;SDS011;30778;53.574;7.770;2022-12-29T04:59:38;1.45;;;0.82;;
45039;SDS011;30778;53.574;7.770;2022-12-29T05:02:04;2.35;;;0.70;;
45039;SDS011;30778;53.574;7.770;2022-12-29T05:04:32;1.40;;;0.40;;
45039;SDS011;30778;53.574;7.770;2022-12-29T05:06:57;1.00;;;0.30;;
45039;SDS011;30778;53.574;7.770;2022-12-29T05:09:23;2.33;;;0.60;;
45039;SDS011;30778;53.574;7.770;2022-12-29T05:11:49;1.83;;;0.57;;
45039;SDS011;30778;53.574;7.770;2022-12-29T05:14:14;1.33;;;0.20;;
45039;SDS011;30778;53.574;7.770;2022-12-29T05:16:44;0.55;;;0.30;;
45039;SDS011;30778;53.574;7.770;2022-12-29T05:19:09;0.98;;;0.30;;
45039;SDS011;30778;53.574;7.770;2022-12-29T05:21:35;1.20;;;0.30;;
45039;SDS011;30778;53.574;7.770;2022-12-29T05:24:01;3.30;;;1.02;;
45039;SDS011;30778;53.574;7.770;2022-12-29T05:26:27;0.80;;;0.20;;
45039;SDS011;30778;53.574;7.770;2022-12-29T05:29:13;0.40;;;0.10;;
45039;SDS011;30778;53.574;7.770;2022-12-29T05:31:38;3.67;;;0.32;;
45039;SDS011;30778;53.574;7.770;2022-12-29T05:34:05;2.35;;;0.25;;
45039;SDS011;30778;53.574;7.770;2022-12-29T05:36:31;1.88;;;0.10;;
45039;SDS011;30778;53.574;7.770;2022-12-29T05:38:59;0.65;;;0.20;;
45039;SDS011;30778;53.574;7.770;2022-12-29T05:41:24;2.65;;;0.22;;
45039;SDS011;30778;53.574;7.770;2022-12-29T05:44:10;1.60;;;0.10;;
45039;SDS011;30778;53.574;7.770;2022-12-29T05:46:55;0.98;;;0.10;;
45039;SDS011;30778;53.574;7.770;2022-12-29T05:49:42;6.38;;;0.30;;
45039;SDS011;30778;53.574;7.770;2022-12-29T05:52:17;4.63;;;0.10;;
45039;SDS011;30778;53.574;7.770;2022-12-29T05:54:43;0.77;;;0.10;;
45039;SDS011;30778;53.574;7.770;2022-12-29T05:57:12;4.55;;;0.20;;
45039;SDS011;30778;53.574;7.770;2022-12-29T05:59:39;0.98;;;0.10;;
45039;SDS011;30778;53.574;7.770;2022-12-29T06:02:04;0.80;;;0.10;;
45039;SDS011;30778;53.574;7.770;2022-12-29T06:04:30;8.73;;;0.82;;
45039;SDS011;30778;53.574;7.770;2022-12-29T06:06:56;1.38;;;0.10;;
45039;SDS011;30778;53.574;7.770;2022-12-29T06:09:31;4.10;;;0.10;;
45039;SDS011;30778;53.574;7.770;2022-12-29T06:11:56;3.70;;;0.40;;
45039;SDS011;30778;53.574;7.770;2022-12-29T06:14:22;4.90;;;0.22;;
45039;SDS011;30778;53.574;7.770;2022-12-29T06:16:48;0.70;;;0.25;;
45039;SDS011;30778;53.574;7.770;2022-12-29T06:19:13;1.55;;;0.20;;
45039;SDS011;30778;53.574;7.770;2022-12-29T06:21:39;7.90;;;0.55;;
45039;SDS011;30778;53.574;7.770;2022-12-29T06:24:05;1.17;;;0.10;;
45039;SDS011;30778;53.574;7.770;2022-12-29T06:26:33;1.60;;;0.22;;
45039;SDS011;30778;53.574;7.770;2022-12-29T06:28:58;4.82;;;0.20;;
45039;SDS011;30778;53.574;7.770;2022-12-29T06:31:24;6.97;;;0.20;;
45039;SDS011;30778;53.574;7.770;2022-12-29T06:33:50;3.53;;;0.22;;
45039;SDS011;30778;53.574;7.770;2022-12-29T06:36:16;1.20;;;0.47;;
45039;SDS011;30778;53.574;7.770;2022-12-29T06:38:41;6.72;;;0.38;;
45039;SDS011;30778;53.574;7.770;2022-12-29T06:41:07;3.10;;;0.28;;
45039;SDS011;30778;53.574;7.770;2022-12-29T06:44:01;4.32;;;0.20;;
45039;SDS011;30778;53.574;7.770;2022-12-29T06:46:45;2.70;;;0.40;;
45039;SDS011;30778;53.574;7.770;2022-12-29T06:49:11;5.88;;;0.20;;
45039;SDS011;30778;53.574;7.770;2022-12-29T06:51:36;7.60;;;0.40;;
45039;SDS011;30778;53.574;7.770;2022-12-29T06:54:02;3.60;;;0.40;;
45039;SDS011;30778;53.574;7.770;2022-12-29T06:56:27;9.55;;;0.30;;
45039;SDS011;30778;53.574;7.770;2022-12-29T06:58:53;4.63;;;0.47;;
45039;SDS011;30778;53.574;7.770;2022-12-29T07:01:18;1.52;;;0.65;;
45039;SDS011;30778;53.574;7.770;2022-12-29T07:03:44;1.05;;;0.10;;
45039;SDS011;30778;53.574;7.770;2022-12-29T07:06:09;2.58;;;0.30;;
45039;SDS011;30778;53.574;7.770;2022-12-29T07:08:35;3.33;;;1.05;;
45039;SDS011;30778;53.574;7.770;2022-12-29T07:11:01;4.55;;;0.25;;
45039;SDS011;30778;53.574;7.770;2022-12-29T07:13:27;3.67;;;0.38;;
45039;SDS011;30778;53.574;7.770;2022-12-29T07:15:52;4.40;;;0.20;;
45039;SDS011;30778;53.574;7.770;2022-12-29T07:18:17;6.80;;;0.82;;
45039;SDS011;30778;53.574;7.770;2022-12-29T07:20:43;8.55;;;0.90;;
45039;SDS011;30778;53.574;7.770;2022-12-29T07:23:09;4.00;;;0.47;;
45039;SDS011;30778;53.574;7.770;2022-12-29T07:25:34;2.22;;;0.30;;
45039;SDS011;30778;53.574;7.770;2022-12-29T07:28:01;4.80;;;1.65;;
45039;SDS011;30778;53.574;7.770;2022-12-29T07:30:30;3.42;;;0.50;;
45039;SDS011;30778;53.574;7.770;2022-12-29T07:32:55;7.65;;;0.47;;
45039;SDS011;30778;53.574;7.770;2022-12-29T07:35:21;1.90;;;0.20;;
45039;SDS011;30778;53.574;7.770;2022-12-29T07:37:47;5.32;;;1.58;;
45039;SDS011;30778;53.574;7.770;2022-12-29T07:40:13;9.27;;;1.20;;
45039;SDS011;30778;53.574;7.770;2022-12-29T07:42:38;4.82;;;0.30;;
45039;SDS011;30778;53.574;7.770;2022-12-29T07:45:07;4.15;;;0.30;;
45039;SDS011;30778;53.574;7.770;2022-12-29T07:48:06;2.45;;;0.22;;
45039;SDS011;30778;53.574;7.770;2022-12-29T07:50:35;8.05;;;1.00;;
45039;SDS011;30778;53.574;7.770;2022-12-29T07:53:02;8.75;;;0.50;;
45039;SDS011;30778;53.574;7.770;2022-12-29T07:55:29;7.63;;;0.60;;
45039;SDS011;30778;53.574;7.770;2022-12-29T07:57:55;2.45;;;0.52;;
45039;SDS011;30778;53.574;7.770;2022-12-29T08:00:21;1.20;;;0.30;;
45039;SDS011;30778;53.574;7.770;2022-12-29T08:02:48;5.15;;;0.75;;
45039;SDS011;30778;53.574;7.770;2022-12-29T08:05:14;10.23;;;0.75;;
45039;SDS011;30778;53.574;7.770;2022-12-29T08:07:42;3.70;;;0.40;;
45039;SDS011;30778;53.574;7.770;2022-12-29T08:10:09;8.63;;;0.70;;
45039;SDS011;30778;53.574;7.770;2022-12-29T08:12:35;9.23;;;0.82;;
45039;SDS011;30778;53.574;7.770;2022-12-29T08:15:02;3.85;;;1.15;;
45039;SDS011;30778;53.574;7.770;2022-12-29T08:17:28;9.05;;;0.45;;
45039;SDS011;30778;53.574;7.770;2022-12-29T08:19:54;3.67;;;0.40;;
45039;SDS011;30778;53.574;7.770;2022-12-29T08:22:19;3.60;;;0.32;;
45039;SDS011;30778;53.574;7.770;2022-12-29T08:27:11;2.67;;;0.20;;
45039;SDS011;30778;53.574;7.770;2022-12-29T08:29:37;7.28;;;0.77;;
45039;SDS011;30778;53.574;7.770;2022-12-29T08:32:02;4.97;;;0.73;;
45039;SDS011;30778;53.574;7.770;2022-12-29T08:34:30;13.43;;;0.57;;
45039;SDS011;30778;53.574;7.770;2022-12-29T08:36:56;7.55;;;0.57;;
45039;SDS011;30778;53.574;7.770;2022-12-29T08:39:22;6.55;;;0.30;;
45039;SDS011;30778;53.574;7.770;2022-12-29T08:41:50;2.85;;;0.32;;
45039;SDS011;30778;53.574;7.770;2022-12-29T08:44:15;5.30;;;0.50;;
45039;SDS011;30778;53.574;7.770;2022-12-29T08:46:41;14.90;;;1.48;;
45039;SDS011;30778;53.574;7.770;2022-12-29T08:49:06;13.15;;;1.42;;
45039;SDS011;30778;53.574;7.770;2022-12-29T08:51:32;11.95;;;0.73;;
45039;SDS011;30778;53.574;7.770;2022-12-29T08:53:58;6.45;;;0.68;;
45039;SDS011;30778;53.574;7.770;2022-12-29T08:56:24;11.07;;;1.17;;
45039;SDS011;30778;53.574;7.770;2022-12-29T08:58:53;3.20;;;0.68;;
45039;SDS011;30778;53.574;7.770;2022-12-29T09:01:21;8.05;;;1.52;;
45039;SDS011;30778;53.574;7.770;2022-12-29T09:03:46;9.18;;;0.40;;
45039;SDS011;30778;53.574;7.770;2022-12-29T09:06:12;4.28;;;0.57;;
45039;SDS011;30778;53.574;7.770;2022-12-29T09:08:38;9.25;;;0.40;;
45039;SDS011;30778;53.574;7.770;2022-12-29T09:11:05;2.17;;;0.22;;
45039;SDS011;30778;53.574;7.770;2022-12-29T09:13:36;7.00;;;0.63;;
45039;SDS011;30778;53.574;7.770;2022-12-29T09:16:01;7.53;;;0.90;;
45039;SDS011;30778;53.574;7.770;2022-12-29T09:18:27;3.75;;;0.50;;
45039;SDS011;30778;53.574;7.770;2022-12-29T09:20:56;9.85;;;0.75;;
45039;SDS011;30778;53.574;7.770;2022-12-29T09:23:25;3.22;;;0.13;;
45039;SDS011;30778;53.574;7.770;2022-12-29T09:25:52;7.18;;;0.60;;
45039;SDS011;30778;53.574;7.770;2022-12-29T09:28:18;6.82;;;0.75;;
45039;SDS011;30778;53.574;7.770;2022-12-29T09:30:44;5.22;;;0.65;;
45039;SDS011;30778;53.574;7.770;2022-12-29T09:33:09;5.25;;;0.35;;
45039;SDS011;30778;53.574;7.770;2022-12-29T09:35:35;3.75;;;0.45;;
45039;SDS011;30778;53.574;7.770;2022-12-29T09:38:01;7.47;;;0.50;;
45039;SDS011;30778;53.574;7.770;2022-12-29T09:40:28;8.23;;;1.10;;
45039;SDS011;30778;53.574;7.770;2022-12-29T09:43:02;5.25;;;1.30;;
45039;SDS011;30778;53.574;7.770;2022-12-29T09:45:59;9.30;;;0.82;;
45039;SDS011;30778;53.574;7.770;2022-12-29T09:48:47;16.02;;;0.95;;
45039;SDS011;30778;53.574;7.770;2022-12-29T09:51:16;6.45;;;0.50;;
45039;SDS011;30778;53.574;7.770;2022-12-29T09:53:49;10.07;;;0.57;;
45039;SDS011;30778;53.574;7.770;2022-12-29T09:56:21;3.33;;;0.80;;
45039;SDS011;30778;53.574;7.770;2022-12-29T09:58:52;10.27;;;0.82;;
45039;SDS011;30778;53.574;7.770;2022-12-29T10:01:41;7.70;;;0.60;;
45039;SDS011;30778;53.574;7.770;2022-12-29T10:04:11;9.75;;;0.70;;
45039;SDS011;30778;53.574;7.770;2022-12-29T10:09:26;13.23;;;0.88;;
45039;SDS011;30778;53.574;7.770;2022-12-29T10:12:17;12.13;;;1.58;;
45039;SDS011;30778;53.574;7.770;2022-12-29T10:17:48;12.15;;;0.85;;
45039;SDS011;30778;53.574;7.770;2022-12-29T10:26:05;12.13;;;0.60;;
45039;SDS011;30778;53.574;7.770;2022-12-29T10:28:49;7.40;;;1.50;;
45039;SDS011;30778;53.574;7.770;2022-12-29T10:31:31;7.55;;;0.32;;
45039;SDS011;30778;53.574;7.770;2022-12-29T10:34:24;10.63;;;0.93;;
45039;SDS011;30778;53.574;7.770;2022-12-29T10:37:00;5.70;;;0.38;;
45039;SDS011;30778;53.574;7.770;2022-12-29T10:39:38;9.88;;;0.82;;
45039;SDS011;30778;53.574;7.770;2022-12-29T10:42:14;6.90;;;0.13;;
45039;SDS011;30778;53.574;7.770;2022-12-29T10:44:50;7.10;;;1.58;;
45039;SDS011;30778;53.574;7.770;2022-12-29T10:47:20;6.57;;;0.50;;
45039;SDS011;30778;53.574;7.770;2022-12-29T10:49:55;7.13;;;0.73;;
45039;SDS011;30778;53.574;7.770;2022-12-29T10:52:23;3.10;;;0.30;;
45039;SDS011;30778;53.574;7.770;2022-12-29T10:54:56;8.40;;;1.08;;
45039;SDS011;30778;53.574;7.770;2022-12-29T10:59:53;4.30;;;0.50;;
45039;SDS011;30778;53.574;7.770;2022-12-29T11:02:25;4.25;;;0.40;;
45039;SDS011;30778;53.574;7.770;2022-12-29T11:07:46;5.07;;;0.77;;
45039;SDS011;30778;53.574;7.770;2022-12-29T11:10:21;7.90;;;0.68;;
45039;SDS011;30778;53.574;7.770;2022-12-29T11:13:18;4.25;;;0.40;;
45039;SDS011;30778;53.574;7.770;2022-12-29T11:18:31;2.67;;;0.30;;
45039;SDS011;30778;53.574;7.770;2022-12-29T11:21:02;2.92;;;0.52;;
45039;SDS011;30778;53.574;7.770;2022-12-29T11:23:38;5.60;;;0.60;;
45039;SDS011;30778;53.574;7.770;2022-12-29T11:29:04;6.55;;;0.63;;
45039;SDS011;30778;53.574;7.770;2022-12-29T11:31:43;3.88;;;0.52;;
45039;SDS011;30778;53.574;7.770;2022-12-29T11:34:21;5.50;;;0.65;;
45039;SDS011;30778;53.574;7.770;2022-12-29T11:36:49;3.97;;;0.47;;
45039;SDS011;30778;53.574;7.770;2022-12-29T11:39:23;6.20;;;0.85;;
45039;SDS011;30778;53.574;7.770;2022-12-29T11:41:51;7.03;;;1.20;;
45039;SDS011;30778;53.574;7.770;2022-12-29T11:44:18;6.20;;;1.15;;
45039;SDS011;30778;53.574;7.770;2022-12-29T11:46:44;9.57;;;0.60;;
45039;SDS011;30778;53.574;7.770;2022-12-29T11:49:13;8.20;;;0.75;;
45039;SDS011;30778;53.574;7.770;2022-12-29T11:51:50;8.30;;;0.45;;
45039;SDS011;30778;53.574;7.770;2022-12-29T11:54:22;5.30;;;0.57;;
45039;SDS011;30778;53.574;7.770;2022-12-29T11:57:08;3.45;;;1.48;;
45039;SDS011;30778;53.574;7.770;2022-12-29T11:59:38;4.57;;;0.30;;
45039;SDS011;30778;53.574;7.770;2022-12-29T12:04:51;5.55;;;0.95;;
45039;SDS011;30778;53.574;7.770;2022-12-29T12:10:19;5.65;;;0.55;;
45039;SDS011;30778;53.574;7.770;2022-12-29T12:13:31;8.30;;;1.08;;
45039;SDS011;30778;53.574;7.770;2022-12-29T12:20:49;10.77;;;1.52;;
45039;SDS011;30778;53.574;7.770;2022-12-29T12:26:12;12.20;;;0.82;;
45039;SDS011;30778;53.574;7.770;2022-12-29T12:31:40;6.97;;;0.70;;
45039;SDS011;30778;53.574;7.770;2022-12-29T12:34:14;9.68;;;1.38;;
45039;SDS011;30778;53.574;7.770;2022-12-29T12:36:50;11.13;;;0.98;;
45039;SDS011;30778;53.574;7.770;2022-12-29T12:48:09;3.80;;;0.60;;
45039;SDS011;30778;53.574;7.770;2022-12-29T12:58:54;10.80;;;1.00;;
45039;SDS011;30778;53.574;7.770;2022-12-29T13:01:38;8.95;;;1.38;;
45039;SDS011;30778;53.574;7.770;2022-12-29T13:04:20;12.57;;;1.60;;
45039;SDS011;30778;53.574;7.770;2022-12-29T13:15:57;10.05;;;1.30;;
45039;SDS011;30778;53.574;7.770;2022-12-29T13:18:52;10.10;;;1.13;;
45039;SDS011;30778;53.574;7.770;2022-12-29T13:21:52;11.13;;;1.40;;
45039;SDS011;30778;53.574;7.770;2022-12-29T13:24:29;6.70;;;0.80;;
45039;SDS011;30778;53.574;7.770;2022-12-29T13:27:36;6.90;;;0.75;;
45039;SDS011;30778;53.574;7.770;2022-12-29T13:30:15;7.45;;;1.00;;
45039;SDS011;30778;53.574;7.770;2022-12-29T13:38:12;9.18;;;0.90;;
45039;SDS011;30778;53.574;7.770;2022-12-29T13:40:40;10.95;;;1.15;;
45039;SDS011;30778;53.574;7.770;2022-12-29T13:43:10;7.35;;;0.73;;
45039;SDS011;30778;53.574;7.770;2022-12-29T13:45:39;10.35;;;1.33;;
45039;SDS011;30778;53.574;7.770;2022-12-29T13:48:26;8.60;;;0.73;;
45039;SDS011;30778;53.574;7.770;2022-12-29T13:51:01;6.75;;;0.88;;
45039;SDS011;30778;53.574;7.770;2022-12-29T14:02:00;8.63;;;1.40;;
45039;SDS011;30778;53.574;7.770;2022-12-29T14:04:17;5.30;;;0.65;;
45039;SDS011;30778;53.574;7.770;2022-12-29T14:06:58;9.20;;;0.93;;
45039;SDS011;30778;53.574;7.770;2022-12-29T14:09:38;7.40;;;0.90;;
45039;SDS011;30778;53.574;7.770;2022-12-29T14:15:06;6.28;;;0.68;;
45039;SDS011;30778;53.574;7.770;2022-12-29T14:18:00;4.15;;;0.38;;
45039;SDS011;30778;53.574;7.770;2022-12-29T14:20:30;8.30;;;0.90;;
45039;SDS011;30778;53.574;7.770;2022-12-29T14:25:54;6.85;;;0.98;;
45039;SDS011;30778;53.574;7.770;2022-12-29T14:28:24;2.47;;;0.55;;
45039;SDS011;30778;53.574;7.770;2022-12-29T14:33:41;8.85;;;0.63;;
45039;SDS011;30778;53.574;7.770;2022-12-29T14:36:33;4.20;;;0.47;;
45039;SDS011;30778;53.574;7.770;2022-12-29T14:39:30;3.70;;;0.40;;
45039;SDS011;30778;53.574;7.770;2022-12-29T14:44:49;2.30;;;0.30;;
45039;SDS011;30778;53.574;7.770;2022-12-29T14:49:56;7.45;;;0.60;;
45039;SDS011;30778;53.574;7.770;2022-12-29T14:52:29;5.78;;;0.77;;
45039;SDS011;30778;53.574;7.770;2022-12-29T14:54:59;11.75;;;1.33;;
45039;SDS011;30778;53.574;7.770;2022-12-29T14:57:57;11.68;;;0.73;;
45039;SDS011;30778;53.574;7.770;2022-12-29T15:00:27;11.85;;;1.15;;
45039;SDS011;30778;53.574;7.770;2022-12-29T15:05:32;6.25;;;0.50;;
45039;SDS011;30778;53.574;7.770;2022-12-29T15:07:58;4.38;;;0.28;;
45039;SDS011;30778;53.574;7.770;2022-12-29T15:10:25;5.28;;;1.02;;
45039;SDS011;30778;53.574;7.770;2022-12-29T15:13:05;5.65;;;0.55;;
45039;SDS011;30778;53.574;7.770;2022-12-29T15:15:40;7.80;;;1.10;;
45039;SDS011;30778;53.574;7.770;2022-12-29T15:18:13;4.28;;;0.88;;
45039;SDS011;30778;53.574;7.770;2022-12-29T15:20:40;10.43;;;1.20;;
45039;SDS011;30778;53.574;7.770;2022-12-29T15:23:10;5.88;;;0.90;;
45039;SDS011;30778;53.574;7.770;2022-12-29T15:25:50;12.70;;;0.55;;
45039;SDS011;30778;53.574;7.770;2022-12-29T15:28:20;17.80;;;0.90;;
45039;SDS011;30778;53.574;7.770;2022-12-29T15:30:53;6.75;;;0.60;;
45039;SDS011;30778;53.574;7.770;2022-12-29T15:33:22;5.88;;;0.38;;
45039;SDS011;30778;53.574;7.770;2022-12-29T15:35:51;12.82;;;1.05;;
45039;SDS011;30778;53.574;7.770;2022-12-29T15:38:22;5.72;;;0.70;;
45039;SDS011;30778;53.574;7.770;2022-12-29T15:40:56;8.88;;;0.77;;
45039;SDS011;30778;53.574;7.770;2022-12-29T15:43:31;6.82;;;0.98;;
45039;SDS011;30778;53.574;7.770;2022-12-29T15:46:25;4.35;;;0.40;;
45039;SDS011;30778;53.574;7.770;2022-12-29T15:48:51;4.03;;;0.50;;
45039;SDS011;30778;53.574;7.770;2022-12-29T15:51:18;7.90;;;1.20;;
45039;SDS011;30778;53.574;7.770;2022-12-29T15:53:48;7.95;;;0.80;;
45039;SDS011;30778;53.574;7.770;2022-12-29T15:56:16;10.38;;;0.65;;
45039;SDS011;30778;53.574;7.770;2022-12-29T15:58:43;10.10;;;0.52;;
45039;SDS011;30778;53.574;7.770;2022-12-29T16:01:17;6.95;;;0.82;;
45039;SDS011;30778;53.574;7.770;2022-12-29T16:03:43;6.35;;;0.40;;
45039;SDS011;30778;53.574;7.770;2022-12-29T16:06:23;4.78;;;0.65;;
45039;SDS011;30778;53.574;7.770;2022-12-29T16:11:24;8.23;;;1.48;;
45039;SDS011;30778;53.574;7.770;2022-12-29T16:13:56;6.75;;;0.88;;
45039;SDS011;30778;53.574;7.770;2022-12-29T16:16:31;7.75;;;0.90;;
45039;SDS011;30778;53.574;7.770;2022-12-29T16:19:08;7.03;;;0.85;;
45039;SDS011;30778;53.574;7.770;2022-12-29T16:21:59;6.00;;;1.63;;
45039;SDS011;30778;53.574;7.770;2022-12-29T16:24:29;13.00;;;0.93;;
45039;SDS011;30778;53.574;7.770;2022-12-29T16:29:32;9.75;;;0.65;;
45039;SDS011;30778;53.574;7.770;2022-12-29T16:31:59;7.95;;;0.68;;
45039;SDS011;30778;53.574;7.770;2022-12-29T16:39:23;8.30;;;0.93;;
45039;SDS011;30778;53.574;7.770;2022-12-29T16:41:50;12.75;;;1.23;;
45039;SDS011;30778;53.574;7.770;2022-12-29T16:44:17;5.70;;;0.88;;
45039;SDS011;30778;53.574;7.770;2022-12-29T16:49:34;6.28;;;1.13;;
45039;SDS011;30778;53.574;7.770;2022-12-29T16:52:25;5.93;;;1.13;;
45039;SDS011;30778;53.574;7.770;2022-12-29T16:54:58;8.85;;;0.50;;
45039;SDS011;30778;53.574;7.770;2022-12-29T16:57:27;8.88;;;1.13;;
45039;SDS011;30778;53.574;7.770;2022-12-29T16:59:59;4.97;;;0.30;;
45039;SDS011;30778;53.574;7.770;2022-12-29T17:02:28;3.92;;;1.00;;
45039;SDS011;30778;53.574;7.770;2022-12-29T17:04:56;10.30;;;1.25;;
45039;SDS011;30778;53.574;7.770;2022-12-29T17:07:25;8.32;;;0.98;;
45039;SDS011;30778;53.574;7.770;2022-12-29T17:09:51;5.32;;;1.23;;
45039;SDS011;30778;53.574;7.770;2022-12-29T17:12:22;9.15;;;0.68;;
45039;SDS011;30778;53.574;7.770;2022-12-29T17:17:41;5.18;;;0.57;;
45039;SDS011;30778;53.574;7.770;2022-12-29T17:20:19;9.40;;;1.13;;
45039;SDS011;30778;53.574;7.770;2022-12-29T17:22:47;4.35;;;0.60;;
45039;SDS011;30778;53.574;7.770;2022-12-29T17:25:17;4.60;;;0.77;;
45039;SDS011;30778;53.574;7.770;2022-12-29T17:30:19;5.30;;;1.02;;
45039;SDS011;30778;53.574;7.770;2022-12-29T17:32:54;8.60;;;0.68;;
45039;SDS011;30778;53.574;7.770;2022-12-29T17:35:23;9.50;;;1.23;;
45039;SDS011;30778;53.574;7.770;2022-12-29T17:37:49;2.92;;;0.55;;
45039;SDS011;30778;53.574;7.770;2022-12-29T17:40:16;9.73;;;0.88;;
45039;SDS011;30778;53.574;7.770;2022-12-29T17:42:44;14.05;;;1.70;;
45039;SDS011;30778;53.574;7.770;2022-12-29T17:45:12;12.70;;;0.75;;
45039;SDS011;30778;53.574;7.770;2022-12-29T17:47:40;8.65;;;0.57;;
45039;SDS011;30778;53.574;7.770;2022-12-29T17:50:08;8.20;;;0.50;;